Time;durP1;ratioP1;P1;durP2;ratioP2;P2;SDS_P1;SDS_P2;PMS_P1;PMS_P2;Temp;Humidity;BMP_temperature;BMP_pressure;BME280_temperature;BME280_humidity;BME280_pressure;Samples;Min_cycle;Max_cycle;Signal;HPM_P1;HPM_P2
2023/10/22 00:00:08;;;;;;;7.07;3.13;;;;;;;;;;4148054;28;20048;-74
2023/10/22 00:02:10;;;;;;;4.38;4.15;;;;;;;;;;4147957;28;20400;-74
2023/10/22 00:04:12;;;;;;;8.93;4.32;;;;;;;;;;4147508;28;20548;-73
2023/10/22 00:06:14;;;;;;;3.63;3.35;;;;;;;;;;4147059;28;20044;-74
2023/10/22 00:08:15;;;;;;;3.23;3.13;;;;;;;;;;4147574;28;20042;-72
2023/10/22 00:10:17;;;;;;;2.50;2.50;;;;;;;;;;4148166;28;20042;-74
2023/10/22 00:12:18;;;;;;;3.30;3.10;;;;;;;;;;4148170;28;20076;-73
2023/10/22 00:14:20;;;;;;;3.53;3.43;;;;;;;;;;4147993;28;20050;-74
2023/10/22 00:16:21;;;;;;;3.90;3.57;;;;;;;;;;4138753;28;20026;-74
2023/10/22 00:18:23;;;;;;;2.97;2.70;;;;;;;;;;4135237;28;20038;-74
2023/10/22 00:20:25;;;;;;;3.40;3.10;;;;;;;;;;4147297;28;20295;-73
2023/10/22 00:22:26;;;;;;;2.60;2.40;;;;;;;;;;4148013;28;20543;-73
2023/10/22 00:24:28;;;;;;;2.00;2.00;;;;;;;;;;4148536;28;20289;-71
2023/10/22 00:26:30;;;;;;;2.42;2.33;;;;;;;;;;4147655;28;20049;-73
2023/10/22 00:28:31;;;;;;;2.80;2.70;;;;;;;;;;4148079;28;20049;-73
2023/10/22 00:30:34;;;;;;;3.60;2.72;;;;;;;;;;4147434;28;20465;-73
2023/10/22 00:32:35;;;;;;;2.75;2.55;;;;;;;;;;4147911;28;20049;-73
2023/10/22 00:34:37;;;;;;;3.00;2.38;;;;;;;;;;4147467;28;20034;-72
2023/10/22 00:36:41;;;;;;;2.13;2.00;;;;;;;;;;4151845;28;20038;-74
2023/10/22 00:38:43;;;;;;;1.70;1.60;;;;;;;;;;4163924;28;20050;-74
2023/10/22 00:40:44;;;;;;;9.95;2.22;;;;;;;;;;4162334;28;20466;-74
2023/10/22 00:42:46;;;;;;;2.23;2.23;;;;;;;;;;4147664;28;20034;-73
2023/10/22 00:44:48;;;;;;;3.20;1.50;;;;;;;;;;4147804;28;20046;-74
2023/10/22 00:46:50;;;;;;;1.70;1.70;;;;;;;;;;4147514;28;20331;-74
2023/10/22 00:48:53;;;;;;;3.78;1.85;;;;;;;;;;4147894;28;20042;-73
2023/10/22 00:50:55;;;;;;;3.38;2.13;;;;;;;;;;4147797;28;20050;-74
2023/10/22 00:52:57;;;;;;;5.35;1.88;;;;;;;;;;4147496;28;20123;-74
2023/10/22 00:54:59;;;;;;;2.47;1.95;;;;;;;;;;4147609;28;20042;-74
2023/10/22 00:57:02;;;;;;;3.20;1.80;;;;;;;;;;4147327;28;20493;-74
2023/10/22 00:59:04;;;;;;;2.58;2.20;;;;;;;;;;4147518;28;20088;-74
2023/10/22 01:01:06;;;;;;;2.47;2.47;;;;;;;;;;4147825;28;20042;-74
2023/10/22 01:03:08;;;;;;;1.90;1.80;;;;;;;;;;4137710;22;20051;-69
2023/10/22 01:05:10;;;;;;;2.60;2.40;;;;;;;;;;4099329;28;20557;-69
2023/10/22 01:07:11;;;;;;;6.57;2.78;;;;;;;;;;4115288;28;20094;-69
2023/10/22 01:09:15;;;;;;;4.47;2.33;;;;;;;;;;4115452;28;20039;-69
2023/10/22 01:11:17;;;;;;;6.75;2.65;;;;;;;;;;4115236;28;20125;-69
2023/10/22 01:13:18;;;;;;;5.97;3.13;;;;;;;;;;4126954;28;20046;-69
2023/10/22 01:15:20;;;;;;;5.30;2.67;;;;;;;;;;4130269;28;20121;-69
2023/10/22 01:17:21;;;;;;;2.80;2.70;;;;;;;;;;4115064;28;20046;-69
2023/10/22 01:19:23;;;;;;;3.65;3.50;;;;;;;;;;4114917;28;20049;-68
2023/10/22 01:21:28;;;;;;;3.03;2.72;;;;;;;;;;4114308;28;20507;-69
2023/10/22 01:23:35;;;;;;;3.80;2.78;;;;;;;;;;4114927;28;20089;-69
2023/10/22 01:25:37;;;;;;;7.20;3.45;;;;;;;;;;4097865;29;20074;-68
2023/10/22 01:27:39;;;;;;;3.13;2.93;;;;;;;;;;4115066;28;20170;-69
2023/10/22 01:29:40;;;;;;;4.33;2.13;;;;;;;;;;4114944;28;20352;-68
2023/10/22 01:31:42;;;;;;;2.40;1.80;;;;;;;;;;4115234;28;20282;-68
2023/10/22 01:33:44;;;;;;;4.13;1.60;;;;;;;;;;4104844;28;20098;-68
2023/10/22 01:35:45;;;;;;;2.60;1.67;;;;;;;;;;4102123;29;20303;-69
2023/10/22 01:37:47;;;;;;;2.30;2.30;;;;;;;;;;4102266;29;20043;-69
2023/10/22 01:39:49;;;;;;;2.38;2.38;;;;;;;;;;4126835;28;20773;-69
2023/10/22 01:41:51;;;;;;;3.00;2.80;;;;;;;;;;4118131;28;20065;-69
2023/10/22 01:43:53;;;;;;;3.92;2.80;;;;;;;;;;4118182;28;20077;-69
2023/10/22 01:45:55;;;;;;;3.22;3.13;;;;;;;;;;4118089;28;20050;-69
2023/10/22 01:47:57;;;;;;;3.70;3.60;;;;;;;;;;4118325;28;20078;-69
2023/10/22 01:49:58;;;;;;;5.57;3.38;;;;;;;;;;4118072;28;20043;-69
2023/10/22 01:52:00;;;;;;;3.60;3.40;;;;;;;;;;4132973;28;20050;-69
2023/10/22 01:54:02;;;;;;;3.72;3.42;;;;;;;;;;4132588;28;20050;-69
2023/10/22 01:56:04;;;;;;;3.10;3.10;;;;;;;;;;4118326;28;20047;-69
2023/10/22 01:58:06;;;;;;;3.03;2.70;;;;;;;;;;4117921;28;20053;-69
2023/10/22 02:00:10;;;;;;;2.35;2.30;;;;;;;;;;4117954;28;20043;-69
2023/10/22 02:02:12;;;;;;;4.10;2.67;;;;;;;;;;4117614;28;20141;-69
2023/10/22 02:04:14;;;;;;;6.70;2.10;;;;;;;;;;4117828;28;20118;-68
2023/10/22 02:06:15;;;;;;;3.55;2.00;;;;;;;;;;4117698;28;20078;-69
2023/10/22 02:08:17;;;;;;;4.43;1.57;;;;;;;;;;4117444;28;20494;-69
2023/10/22 02:10:20;;;;;;;2.20;1.87;;;;;;;;;;4117785;28;20117;-69
2023/10/22 02:12:28;;;;;;;2.03;1.65;;;;;;;;;;4117683;28;20751;-69
2023/10/22 02:14:30;;;;;;;3.08;2.20;;;;;;;;;;4117868;28;20043;-69
2023/10/22 02:16:31;;;;;;;2.83;1.67;;;;;;;;;;4107025;28;20079;-69
2023/10/22 02:18:33;;;;;;;3.03;1.70;;;;;;;;;;4107558;28;20051;-69
2023/10/22 02:20:35;;;;;;;2.13;2.10;;;;;;;;;;4117565;28;20498;-69
2023/10/22 02:22:37;;;;;;;3.83;2.65;;;;;;;;;;4117275;28;20047;-69
2023/10/22 02:24:39;;;;;;;5.15;1.85;;;;;;;;;;4117172;28;20499;-69
2023/10/22 02:26:41;;;;;;;1.80;1.27;;;;;;;;;;4100142;29;20546;-69
2023/10/22 02:28:43;;;;;;;4.28;1.60;;;;;;;;;;4112704;28;20047;-68
2023/10/22 02:30:47;;;;;;;4.13;1.50;;;;;;;;;;4117700;28;20097;-69
2023/10/22 02:32:49;;;;;;;1.90;1.77;;;;;;;;;;4117223;28;20038;-69
2023/10/22 02:34:52;;;;;;;2.17;2.08;;;;;;;;;;4117578;28;20045;-68
2023/10/22 02:36:53;;;;;;;1.90;1.70;;;;;;;;;;4117410;28;20073;-69
2023/10/22 02:38:56;;;;;;;1.83;1.73;;;;;;;;;;4117138;28;20047;-68
2023/10/22 02:40:57;;;;;;;3.70;2.03;;;;;;;;;;4101262;29;20410;-69
2023/10/22 02:42:59;;;;;;;4.73;2.20;;;;;;;;;;4101092;28;20050;-68
2023/10/22 02:45:01;;;;;;;3.53;2.70;;;;;;;;;;4099868;29;20326;-69
2023/10/22 02:47:03;;;;;;;4.13;2.22;;;;;;;;;;4101035;29;20047;-68
2023/10/22 02:49:04;;;;;;;2.75;2.10;;;;;;;;;;4116944;28;20050;-69
2023/10/22 02:51:06;;;;;;;4.20;2.57;;;;;;;;;;4117178;28;20094;-69
2023/10/22 02:53:07;;;;;;;4.00;2.20;;;;;;;;;;4116824;28;20043;-69
2023/10/22 02:55:09;;;;;;;5.63;3.13;;;;;;;;;;4117028;28;20043;-69
2023/10/22 02:57:11;;;;;;;3.40;3.20;;;;;;;;;;4116210;28;20043;-69
2023/10/22 02:59:12;;;;;;;3.80;2.70;;;;;;;;;;4117049;28;20317;-69
2023/10/22 03:01:16;;;;;;;2.73;2.73;;;;;;;;;;4116974;28;20419;-69
2023/10/22 03:03:18;;;;;;;2.17;2.17;;;;;;;;;;4116692;28;20702;-68
2023/10/22 03:05:20;;;;;;;3.83;3.53;;;;;;;;;;4116824;28;20094;-69
2023/10/22 03:07:23;;;;;;;5.20;3.43;;;;;;;;;;4099798;28;20119;-69
2023/10/22 03:09:24;;;;;;;3.60;2.88;;;;;;;;;;4116879;28;20518;-68
2023/10/22 03:11:26;;;;;;;3.22;3.03;;;;;;;;;;4116923;28;20105;-69
2023/10/22 03:13:28;;;;;;;2.07;2.00;;;;;;;;;;4116597;28;20615;-68
2023/10/22 03:15:30;;;;;;;4.05;2.30;;;;;;;;;;4119118;28;20071;-68
2023/10/22 03:17:31;;;;;;;2.15;2.00;;;;;;;;;;4117011;28;20042;-69
2023/10/22 03:19:33;;;;;;;5.63;2.53;;;;;;;;;;4116708;28;20039;-69
2023/10/22 03:21:36;;;;;;;3.60;3.47;;;;;;;;;;4116711;28;20359;-68
2023/10/22 03:23:43;;;;;;;5.95;5.55;;;;;;;;;;4099002;29;20047;-69
2023/10/22 03:25:45;;;;;;;7.50;5.22;;;;;;;;;;4092193;29;20054;-69
2023/10/22 03:27:46;;;;;;;6.60;3.35;;;;;;;;;;4116587;28;20070;-69
2023/10/22 03:29:48;;;;;;;3.07;2.83;;;;;;;;;;4116921;28;20070;-69
2023/10/22 03:31:50;;;;;;;5.10;3.40;;;;;;;;;;4116204;28;20078;-69
2023/10/22 03:33:51;;;;;;;4.18;4.07;;;;;;;;;;4116573;28;20110;-69
2023/10/22 03:35:53;;;;;;;4.70;3.10;;;;;;;;;;4116435;28;20043;-69
2023/10/22 03:37:55;;;;;;;2.00;2.00;;;;;;;;;;4116338;28;20042;-69
2023/10/22 03:39:56;;;;;;;4.90;2.20;;;;;;;;;;4099013;28;20333;-69
2023/10/22 03:41:58;;;;;;;2.17;1.83;;;;;;;;;;4116051;28;20070;-69
2023/10/22 03:44:00;;;;;;;3.17;2.10;;;;;;;;;;4105915;28;20574;-69
2023/10/22 03:46:02;;;;;;;1.73;1.70;;;;;;;;;;4113944;28;20042;-69
2023/10/22 03:48:04;;;;;;;5.82;1.90;;;;;;;;;;4100519;29;20297;-69
2023/10/22 03:50:06;;;;;;;5.05;4.82;;;;;;;;;;4115049;28;20054;-68
2023/10/22 03:52:07;;;;;;;7.15;3.28;;;;;;;;;;4116237;28;20039;-69
2023/10/22 03:54:09;;;;;;;2.97;2.50;;;;;;;;;;4115918;28;20038;-69
2023/10/22 03:56:10;;;;;;;3.63;2.22;;;;;;;;;;4115359;28;20073;-69
2023/10/22 03:58:12;;;;;;;3.30;2.27;;;;;;;;;;4098979;29;20095;-68
2023/10/22 04:00:14;;;;;;;2.93;1.77;;;;;;;;;;4116140;28;20092;-68
2023/10/22 04:02:16;;;;;;;2.03;1.92;;;;;;;;;;4115523;28;20298;-68
2023/10/22 04:04:17;;;;;;;2.00;1.90;;;;;;;;;;4115903;28;20122;-68
2023/10/22 04:06:19;;;;;;;1.63;1.63;;;;;;;;;;4116030;28;20142;-68
2023/10/22 04:08:21;;;;;;;5.60;1.67;;;;;;;;;;4116021;28;20046;-68
2023/10/22 04:10:22;;;;;;;2.50;1.90;;;;;;;;;;4115702;28;20654;-68
2023/10/22 04:12:24;;;;;;;2.38;2.10;;;;;;;;;;4115833;28;20038;-68
2023/10/22 04:14:26;;;;;;;4.38;1.50;;;;;;;;;;4121584;28;20106;-69
2023/10/22 04:16:27;;;;;;;2.30;1.73;;;;;;;;;;4121936;28;20113;-69
2023/10/22 04:18:29;;;;;;;1.77;1.73;;;;;;;;;;4115178;28;20455;-68
2023/10/22 04:20:32;;;;;;;2.20;1.92;;;;;;;;;;4115247;28;20050;-68
2023/10/22 04:22:33;;;;;;;4.90;2.75;;;;;;;;;;4107123;28;20414;-68
2023/10/22 04:24:39;;;;;;;1.77;1.67;;;;;;;;;;4115688;28;20039;-68
2023/10/22 04:26:42;;;;;;;1.92;1.65;;;;;;;;;;4115600;28;20074;-68
2023/10/22 04:28:45;;;;;;;3.90;2.10;;;;;;;;;;4115492;28;20050;-68
2023/10/22 04:30:46;;;;;;;2.83;2.65;;;;;;;;;;4115732;28;20121;-68
2023/10/22 04:32:49;;;;;;;2.10;2.00;;;;;;;;;;4115491;28;20054;-68
2023/10/22 04:34:50;;;;;;;3.35;2.40;;;;;;;;;;4115621;28;20081;-68
2023/10/22 04:36:52;;;;;;;7.27;3.13;;;;;;;;;;4098160;29;20043;-68
2023/10/22 04:38:54;;;;;;;4.40;4.20;;;;;;;;;;4115382;28;20479;-68
2023/10/22 04:40:55;;;;;;;8.07;4.28;;;;;;;;;;4115550;28;20047;-68
2023/10/22 04:42:57;;;;;;;4.50;3.83;;;;;;;;;;4115256;28;20403;-68
2023/10/22 04:44:59;;;;;;;3.83;3.50;;;;;;;;;;4115300;28;20392;-68
2023/10/22 04:47:02;;;;;;;4.15;3.95;;;;;;;;;;4115325;28;20129;-68
2023/10/22 04:49:04;;;;;;;3.22;2.97;;;;;;;;;;4115661;28;20106;-68
2023/10/22 04:51:06;;;;;;;4.47;4.18;;;;;;;;;;4115210;28;20409;-68
2023/10/22 04:53:08;;;;;;;3.47;3.20;;;;;;;;;;4115400;28;20047;-68
2023/10/22 04:55:15;;;;;;;2.85;1.90;;;;;;;;;;4115104;28;20090;-68
2023/10/22 04:57:17;;;;;;;17.75;2.67;;;;;;;;;;4115521;28;20049;-68
2023/10/22 04:59:19;;;;;;;1.60;1.60;;;;;;;;;;4115456;28;20047;-68
2023/10/22 05:01:21;;;;;;;2.10;1.70;;;;;;;;;;4115319;28;20070;-68
2023/10/22 05:03:22;;;;;;;4.05;2.25;;;;;;;;;;4115030;28;20290;-68
2023/10/22 05:05:24;;;;;;;3.88;1.90;;;;;;;;;;4115326;28;20126;-68
2023/10/22 05:07:26;;;;;;;8.35;1.63;;;;;;;;;;4115148;28;20465;-68
2023/10/22 05:09:27;;;;;;;3.05;1.77;;;;;;;;;;4115379;28;20046;-68
2023/10/22 05:11:29;;;;;;;2.88;2.30;;;;;;;;;;4111746;28;20455;-68
2023/10/22 05:13:30;;;;;;;4.10;2.57;;;;;;;;;;4111583;28;20047;-68
2023/10/22 05:15:32;;;;;;;5.27;2.20;;;;;;;;;;4110157;28;20078;-68
2023/10/22 05:17:34;;;;;;;3.07;2.20;;;;;;;;;;4113712;28;20105;-68
2023/10/22 05:19:35;;;;;;;4.72;2.60;;;;;;;;;;4115337;28;20046;-68
2023/10/22 05:21:37;;;;;;;6.23;1.90;;;;;;;;;;4115278;28;20077;-68
2023/10/22 05:23:38;;;;;;;5.47;2.13;;;;;;;;;;4114899;28;20491;-68
2023/10/22 05:25:41;;;;;;;3.87;2.20;;;;;;;;;;4097730;29;20302;-68
2023/10/22 05:27:42;;;;;;;4.35;2.10;;;;;;;;;;4114980;28;20042;-68
2023/10/22 05:29:46;;;;;;;11.27;2.70;;;;;;;;;;4115132;28;20070;-68
2023/10/22 05:31:48;;;;;;;3.55;2.67;;;;;;;;;;4114726;28;20069;-68
2023/10/22 05:33:50;;;;;;;3.92;3.20;;;;;;;;;;4115039;28;20050;-68
2023/10/22 05:35:51;;;;;;;;;;;;;;;;;;4115388;28;20039;-68
2023/10/22 05:37:53;;;;;;;3.65;3.03;;;;;;;;;;4108496;28;19933;-68
2023/10/22 05:39:58;;;;;;;4.07;2.70;;;;;;;;;;4113825;28;20418;-68
2023/10/22 05:42:00;;;;;;;4.40;2.22;;;;;;;;;;4104061;28;20043;-68
2023/10/22 05:44:02;;;;;;;2.20;2.10;;;;;;;;;;4115900;28;20049;-68
2023/10/22 05:46:03;;;;;;;;;;;;;;;;;;4105181;28;20131;-69
2023/10/22 05:48:05;;;;;;;2.80;2.50;;;;;;;;;;4081799;29;19978;-68
2023/10/22 05:50:07;;;;;;;3.78;2.80;;;;;;;;;;4106374;28;20046;-68
2023/10/22 05:52:09;;;;;;;4.40;3.80;;;;;;;;;;4096339;29;20035;-68
2023/10/22 05:54:10;;;;;;;3.75;2.75;;;;;;;;;;4112692;28;20066;-68
2023/10/22 05:56:13;;;;;;;5.25;3.08;;;;;;;;;;4110109;28;20086;-68
2023/10/22 05:58:15;;;;;;;3.40;3.10;;;;;;;;;;4107277;28;20066;-68
2023/10/22 06:00:16;;;;;;;4.17;3.80;;;;;;;;;;4109300;28;20491;-69
2023/10/22 06:02:18;;;;;;;6.03;4.43;;;;;;;;;;4097023;28;20058;-69
2023/10/22 06:04:20;;;;;;;9.52;5.00;;;;;;;;;;4114884;28;20093;-69
2023/10/22 06:06:22;;;;;;;4.88;4.63;;;;;;;;;;4114813;28;20050;-69
2023/10/22 06:08:24;;;;;;;6.65;3.88;;;;;;;;;;4114989;28;20043;-69
2023/10/22 06:10:27;;;;;;;4.45;4.20;;;;;;;;;;4114658;28;20659;-69
2023/10/22 06:12:29;;;;;;;5.57;3.65;;;;;;;;;;4114259;28;20057;-69
2023/10/22 06:14:31;;;;;;;5.27;4.97;;;;;;;;;;4113698;28;20085;-69
2023/10/22 06:16:33;;;;;;;5.87;5.47;;;;;;;;;;4114426;28;20101;-69
2023/10/22 06:18:34;;;;;;;5.97;5.57;;;;;;;;;;4115034;28;20654;-69
2023/10/22 06:20:36;;;;;;;7.93;5.20;;;;;;;;;;4116997;28;20439;-69
2023/10/22 06:22:38;;;;;;;5.82;4.97;;;;;;;;;;4113370;28;20047;-69
2023/10/22 06:24:40;;;;;;;5.00;4.65;;;;;;;;;;4116047;28;20049;-70
2023/10/22 06:26:42;;;;;;;5.10;4.80;;;;;;;;;;4116977;28;20404;-69
2023/10/22 06:28:43;;;;;;;7.93;4.70;;;;;;;;;;4117049;28;20050;-69
2023/10/22 06:30:45;;;;;;;6.40;4.78;;;;;;;;;;4117133;28;20051;-69
2023/10/22 06:32:47;;;;;;;6.15;5.63;;;;;;;;;;4116933;28;20051;-69
2023/10/22 06:34:49;;;;;;;5.07;4.78;;;;;;;;;;4117197;28;20038;-69
2023/10/22 06:36:51;;;;;;;4.63;4.43;;;;;;;;;;4116725;28;20376;-69
2023/10/22 06:38:52;;;;;;;4.40;3.97;;;;;;;;;;4115553;28;20480;-69
2023/10/22 06:40:54;;;;;;;5.25;4.95;;;;;;;;;;4116506;28;20446;-69
2023/10/22 06:42:56;;;;;;;4.53;4.33;;;;;;;;;;4116870;28;20438;-69
2023/10/22 06:45:00;;;;;;;6.25;5.65;;;;;;;;;;4114106;28;20035;-69
2023/10/22 06:47:02;;;;;;;6.45;6.15;;;;;;;;;;4116455;28;20043;-69
2023/10/22 06:49:04;;;;;;;6.57;6.13;;;;;;;;;;4116740;28;20038;-69
2023/10/22 06:51:10;;;;;;;7.28;6.68;;;;;;;;;;4116788;28;20038;-69
2023/10/22 06:53:12;;;;;;;10.27;6.95;;;;;;;;;;4108948;28;20398;-69
2023/10/22 06:55:13;;;;;;;8.63;6.37;;;;;;;;;;4114273;28;20077;-69
2023/10/22 06:57:15;;;;;;;6.93;6.27;;;;;;;;;;4112506;28;20498;-70
2023/10/22 06:59:16;;;;;;;9.82;8.02;;;;;;;;;;4107587;28;20039;-69
2023/10/22 07:01:18;;;;;;;8.80;8.00;;;;;;;;;;4114347;28;20070;-69
2023/10/22 07:03:20;;;;;;;9.20;7.50;;;;;;;;;;4116079;28;20046;-70
2023/10/22 07:05:22;;;;;;;8.23;6.78;;;;;;;;;;4116367;28;20041;-69
2023/10/22 07:07:24;;;;;;;9.13;8.15;;;;;;;;;;4116492;28;20051;-69
2023/10/22 07:09:25;;;;;;;5.68;5.28;;;;;;;;;;4113005;28;20511;-70
2023/10/22 07:11:33;;;;;;;5.75;5.45;;;;;;;;;;4113352;28;20118;-70
2023/10/22 07:13:34;;;;;;;8.30;6.63;;;;;;;;;;4116139;28;20051;-69
2023/10/22 07:15:36;;;;;;;9.55;6.10;;;;;;;;;;4112281;28;20046;-70
2023/10/22 07:17:41;;;;;;;7.47;7.17;;;;;;;;;;4113211;28;20067;-70
2023/10/22 07:19:43;;;;;;;8.32;6.13;;;;;;;;;;4113819;28;20147;-70
2023/10/22 07:21:44;;;;;;;6.57;6.00;;;;;;;;;;4116366;28;20039;-70
2023/10/22 07:23:46;;;;;;;8.03;7.40;;;;;;;;;;4116255;28;20439;-70
2023/10/22 07:25:48;;;;;;;6.90;6.13;;;;;;;;;;4110790;28;20035;-70
2023/10/22 07:27:50;;;;;;;5.68;5.28;;;;;;;;;;4115825;28;20286;-70
2023/10/22 07:29:51;;;;;;;10.03;6.03;;;;;;;;;;4115449;28;20067;-70
2023/10/22 07:31:53;;;;;;;5.50;5.03;;;;;;;;;;4111585;28;20529;-70
2023/10/22 07:33:54;;;;;;;4.97;4.82;;;;;;;;;;4108520;28;20289;-70
2023/10/22 07:35:57;;;;;;;5.93;4.43;;;;;;;;;;4112970;28;20042;-70
2023/10/22 07:37:59;;;;;;;6.20;5.47;;;;;;;;;;4115423;28;20149;-70
2023/10/22 07:40:01;;;;;;;6.97;6.57;;;;;;;;;;4114148;28;20085;-70
2023/10/22 07:42:03;;;;;;;7.57;5.65;;;;;;;;;;4114124;28;20039;-70
2023/10/22 07:44:05;;;;;;;10.82;5.80;;;;;;;;;;4116100;28;20045;-70
2023/10/22 07:46:07;;;;;;;7.95;7.38;;;;;;;;;;4115696;28;20047;-70
2023/10/22 07:48:09;;;;;;;17.20;15.68;;;;;;;;;;4115665;28;20475;-70
2023/10/22 07:50:11;;;;;;;15.15;14.45;;;;;;;;;;4116033;28;20031;-70
2023/10/22 07:52:37;;;;;;;14.45;13.35;;;;;;;;;;4109033;28;20065;-70
2023/10/22 07:54:38;;;;;;;17.25;15.10;;;;;;;;;;4115562;28;20463;-70
2023/10/22 07:56:40;;;;;;;19.77;18.07;;;;;;;;;;4115570;28;20091;-70
2023/10/22 07:58:41;;;;;;;12.90;11.97;;;;;;;;;;4115577;28;20042;-70
2023/10/22 08:00:43;;;;;;;11.97;11.10;;;;;;;;;;4114325;28;20038;-70
2023/10/22 08:02:45;;;;;;;11.67;10.60;;;;;;;;;;4115335;28;20294;-71
2023/10/22 08:04:46;;;;;;;8.30;7.72;;;;;;;;;;4111784;28;20298;-71
2023/10/22 08:06:48;;;;;;;6.95;6.38;;;;;;;;;;4113670;28;20361;-71
2023/10/22 08:08:54;;;;;;;8.93;6.95;;;;;;;;;;4114317;28;20053;-71
2023/10/22 08:10:57;;;;;;;9.75;9.07;;;;;;;;;;4110021;28;20047;-71
2023/10/22 08:12:59;;;;;;;7.93;7.53;;;;;;;;;;4094208;28;20075;-71
2023/10/22 08:15:01;;;;;;;9.77;9.13;;;;;;;;;;4108383;28;20055;-71
2023/10/22 08:17:02;;;;;;;9.07;8.60;;;;;;;;;;4109144;28;20415;-71
2023/10/22 08:19:04;;;;;;;6.47;6.28;;;;;;;;;;4111038;28;20442;-71
2023/10/22 08:21:08;;;;;;;6.13;5.57;;;;;;;;;;4112179;28;20062;-71
2023/10/22 08:23:10;;;;;;;5.70;5.22;;;;;;;;;;4097606;28;20443;-71
2023/10/22 08:25:12;;;;;;;4.07;3.83;;;;;;;;;;4092873;29;20039;-71
2023/10/22 08:27:13;;;;;;;4.90;4.33;;;;;;;;;;4093734;29;20294;-70
2023/10/22 08:29:15;;;;;;;3.10;3.00;;;;;;;;;;4094288;29;20386;-70
2023/10/22 08:31:17;;;;;;;2.50;2.40;;;;;;;;;;4095877;29;20067;-70
2023/10/22 08:33:19;;;;;;;3.47;3.17;;;;;;;;;;4093594;29;20090;-71
2023/10/22 08:35:20;;;;;;;3.17;2.90;;;;;;;;;;4090071;29;20306;-71
2023/10/22 08:37:22;;;;;;;2.13;2.03;;;;;;;;;;4096017;29;20054;-71
2023/10/22 08:39:27;;;;;;;2.25;2.05;;;;;;;;;;4079865;29;20049;-70
2023/10/22 08:41:33;;;;;;;1.50;1.40;;;;;;;;;;4094191;29;20150;-71
2023/10/22 08:43:38;;;;;;;1.48;1.40;;;;;;;;;;4093571;29;20043;-71
2023/10/22 08:45:40;;;;;;;1.55;1.45;;;;;;;;;;4098097;29;20039;-71
2023/10/22 08:47:42;;;;;;;1.30;1.30;;;;;;;;;;4098252;29;20043;-70
2023/10/22 08:49:44;;;;;;;1.60;1.50;;;;;;;;;;4098389;29;20065;-70
2023/10/22 08:51:46;;;;;;;4.38;2.55;;;;;;;;;;4098210;29;20077;-70
2023/10/22 08:53:48;;;;;;;3.30;2.17;;;;;;;;;;4096072;29;20047;-70
2023/10/22 08:55:49;;;;;;;3.08;2.88;;;;;;;;;;4092299;29;20291;-71
2023/10/22 08:57:51;;;;;;;3.00;2.80;;;;;;;;;;4090718;29;20074;-70
2023/10/22 08:59:53;;;;;;;3.63;3.37;;;;;;;;;;4090441;29;20069;-70
2023/10/22 09:01:56;;;;;;;3.53;3.03;;;;;;;;;;4097519;28;20301;-70
2023/10/22 09:03:58;;;;;;;3.10;2.50;;;;;;;;;;4095340;29;20121;-70
2023/10/22 09:06:01;;;;;;;6.03;2.03;;;;;;;;;;4097588;29;20039;-70
2023/10/22 09:08:04;;;;;;;1.40;1.40;;;;;;;;;;4092380;29;20438;-69
2023/10/22 09:10:22;;;;;;;2.53;1.80;;;;;;;;;;4096785;29;20125;-69
2023/10/22 09:12:23;;;;;;;2.63;1.77;;;;;;;;;;4097316;29;20303;-69
2023/10/22 09:14:25;;;;;;;2.00;1.90;;;;;;;;;;4096583;29;20090;-69
2023/10/22 09:16:31;;;;;;;2.38;2.25;;;;;;;;;;4092379;29;20051;-69
2023/10/22 09:18:40;;;;;;;4.63;2.60;;;;;;;;;;4095250;29;20098;-70
2023/10/22 09:20:44;;;;;;;1.83;1.73;;;;;;;;;;4097871;29;20039;-69
2023/10/22 09:22:46;;;;;;;3.08;2.00;;;;;;;;;;4091779;29;20036;-68
2023/10/22 09:24:49;;;;;;;1.70;1.60;;;;;;;;;;4094202;29;20075;-69
2023/10/22 09:26:51;;;;;;;2.20;2.08;;;;;;;;;;4091502;28;20074;-69
2023/10/22 09:28:53;;;;;;;;;;;;;;;;;;4094376;28;20053;-68
2023/10/22 09:30:59;;;;;;;2.72;1.67;;;;;;;;;;4092787;28;19930;-68
2023/10/22 09:33:00;;;;;;;8.02;2.50;;;;;;;;;;4091786;28;20057;-67
2023/10/22 09:35:12;;;;;;;4.05;3.13;;;;;;;;;;4094550;29;20043;-67
2023/10/22 09:37:14;;;;;;;4.57;3.22;;;;;;;;;;4091148;29;20071;-65
2023/10/22 09:39:31;;;;;;;11.75;2.28;;;;;;;;;;4091817;29;20047;-67
2023/10/22 09:41:33;;;;;;;5.35;1.65;;;;;;;;;;4091609;29;20035;-66
2023/10/22 09:43:35;;;;;;;1.40;1.40;;;;;;;;;;4093838;29;20464;-67
2023/10/22 09:45:37;;;;;;;1.87;1.20;;;;;;;;;;4090557;28;20071;-66
2023/10/22 09:47:40;;;;;;;2.55;1.30;;;;;;;;;;4090462;29;20035;-66
2023/10/22 09:49:44;;;;;;;2.75;1.40;;;;;;;;;;4093818;29;20052;-66
2023/10/22 09:51:46;;;;;;;5.18;1.70;;;;;;;;;;4098415;29;20447;-66
2023/10/22 09:53:51;;;;;;;1.77;1.52;;;;;;;;;;4097737;28;20061;-67
2023/10/22 09:55:54;;;;;;;1.58;1.48;;;;;;;;;;4099101;29;20114;-67
2023/10/22 09:57:56;;;;;;;2.35;1.73;;;;;;;;;;4099291;29;20066;-67
2023/10/22 10:00:01;;;;;;;3.42;1.65;;;;;;;;;;4097246;29;20136;-67
2023/10/22 10:02:04;;;;;;;2.20;1.30;;;;;;;;;;4098491;28;20054;-68
2023/10/22 10:04:06;;;;;;;4.20;1.50;;;;;;;;;;4099563;29;20043;-68
2023/10/22 10:06:08;;;;;;;1.70;1.60;;;;;;;;;;4099711;29;20122;-67
2023/10/22 10:08:10;;;;;;;3.08;1.20;;;;;;;;;;4098937;29;20041;-67
2023/10/22 10:10:12;;;;;;;2.60;1.27;;;;;;;;;;4100600;29;20036;-67
2023/10/22 10:12:13;;;;;;;35.20;4.30;;;;;;;;;;4099308;29;20098;-66
2023/10/22 10:14:33;;;;;;;7.10;4.50;;;;;;;;;;4100435;29;20106;-66
2023/10/22 10:16:40;;;;;;;5.18;1.38;;;;;;;;;;4095879;29;20578;-65
2023/10/22 10:18:59;;;;;;;2.65;1.10;;;;;;;;;;4098497;29;20035;-66
2023/10/22 10:21:20;;;;;;;4.03;1.15;;;;;;;;;;4095572;29;20422;-68
2023/10/22 10:23:23;;;;;;;1.53;1.30;;;;;;;;;;4097748;29;20073;-66
2023/10/22 10:25:27;;;;;;;2.85;1.00;;;;;;;;;;4097898;29;20094;-66
2023/10/22 10:27:29;;;;;;;1.35;1.10;;;;;;;;;;4096784;29;20546;-66
2023/10/22 10:29:32;;;;;;;1.70;1.60;;;;;;;;;;4099398;29;20466;-66
2023/10/22 10:31:34;;;;;;;2.00;1.10;;;;;;;;;;4097460;29;20045;-66
2023/10/22 10:33:56;;;;;;;4.32;1.33;;;;;;;;;;4098145;29;20043;-65
2023/10/22 10:35:59;;;;;;;1.30;1.20;;;;;;;;;;4090881;29;20547;-66
2023/10/22 10:38:15;;;;;;;2.10;1.60;;;;;;;;;;4088784;29;20078;-66
2023/10/22 10:40:37;;;;;;;2.28;1.50;;;;;;;;;;4092645;29;20122;-66
2023/10/22 10:42:47;;;;;;;8.68;2.42;;;;;;;;;;4094951;29;20031;-66
2023/10/22 10:44:54;;;;;;;3.17;1.92;;;;;;;;;;4092944;28;20067;-66
2023/10/22 10:47:14;;;;;;;2.97;1.90;;;;;;;;;;4092315;29;20610;-65
2023/10/22 10:49:36;;;;;;;2.00;1.90;;;;;;;;;;4097528;29;20062;-66
2023/10/22 10:51:37;;;;;;;2.25;2.08;;;;;;;;;;4097224;29;20511;-66
2023/10/22 10:53:57;;;;;;;2.40;1.50;;;;;;;;;;4098551;29;20031;-65
2023/10/22 10:56:00;;;;;;;6.45;1.50;;;;;;;;;;4091628;28;20284;-66
2023/10/22 10:58:02;;;;;;;4.10;2.30;;;;;;;;;;4092372;29;20047;-66
2023/10/22 11:00:05;;;;;;;5.65;2.25;;;;;;;;;;4095005;29;20039;-66
2023/10/22 11:02:07;;;;;;;2.35;2.25;;;;;;;;;;4096294;29;20047;-66
2023/10/22 11:04:10;;;;;;;4.32;2.47;;;;;;;;;;4097223;28;20526;-66
2023/10/22 11:06:11;;;;;;;4.95;2.13;;;;;;;;;;4098791;29;20066;-66
2023/10/22 11:08:23;;;;;;;1.60;1.58;;;;;;;;;;4100020;29;20094;-66
2023/10/22 11:10:27;;;;;;;1.25;1.15;;;;;;;;;;4092089;29;20083;-66
2023/10/22 11:12:29;;;;;;;5.85;1.60;;;;;;;;;;4099050;29;20094;-67
2023/10/22 11:14:31;;;;;;;2.38;2.15;;;;;;;;;;4094080;29;20043;-66
2023/10/22 11:16:33;;;;;;;3.20;2.63;;;;;;;;;;4096100;29;20507;-67
2023/10/22 11:18:51;;;;;;;4.47;3.05;;;;;;;;;;4100251;29;20483;-66
2023/10/22 11:20:56;;;;;;;3.08;2.08;;;;;;;;;;4100035;29;20448;-66
2023/10/22 11:22:59;;;;;;;3.72;3.03;;;;;;;;;;4092800;29;20074;-67
2023/10/22 11:25:01;;;;;;;3.25;2.95;;;;;;;;;;4099051;29;20078;-67
2023/10/22 11:27:04;;;;;;;3.58;2.60;;;;;;;;;;4098625;29;20066;-66
2023/10/22 11:29:06;;;;;;;2.63;2.47;;;;;;;;;;4097918;29;20032;-66
2023/10/22 11:31:22;;;;;;;3.37;2.10;;;;;;;;;;4092392;29;20040;-66
2023/10/22 11:33:32;;;;;;;5.05;2.25;;;;;;;;;;4096641;29;20318;-66
2023/10/22 11:35:36;;;;;;;4.38;1.73;;;;;;;;;;4078717;29;20047;-66
2023/10/22 11:37:41;;;;;;;2.42;2.17;;;;;;;;;;4094802;29;20126;-67
2023/10/22 11:39:43;;;;;;;2.13;1.80;;;;;;;;;;4099532;29;20496;-66
2023/10/22 11:41:45;;;;;;;2.63;1.95;;;;;;;;;;4099043;29;20311;-67
2023/10/22 11:43:50;;;;;;;3.70;2.25;;;;;;;;;;4082782;29;20082;-66
2023/10/22 11:45:53;;;;;;;3.50;1.90;;;;;;;;;;4099382;29;20415;-66
2023/10/22 11:48:09;;;;;;;3.83;1.67;;;;;;;;;;4099259;29;20042;-68
2023/10/22 11:50:13;;;;;;;3.55;1.30;;;;;;;;;;4099315;29;20050;-69
2023/10/22 11:52:38;;;;;;;3.58;1.63;;;;;;;;;;4096199;29;20073;-68
2023/10/22 11:54:44;;;;;;;2.63;2.25;;;;;;;;;;4092540;29;20047;-68
2023/10/22 11:56:47;;;;;;;2.13;1.30;;;;;;;;;;4098389;29;20179;-68
2023/10/22 11:58:52;;;;;;;1.83;1.63;;;;;;;;;;4090952;29;20503;-68
2023/10/22 12:00:54;;;;;;;2.78;1.58;;;;;;;;;;4094873;29;20118;-69
2023/10/22 12:02:56;;;;;;;5.53;1.42;;;;;;;;;;4099390;28;20055;-69
2023/10/22 12:04:57;;;;;;;2.00;1.20;;;;;;;;;;4098186;29;20400;-66
2023/10/22 12:07:03;;;;;;;1.45;1.33;;;;;;;;;;4099678;29;20039;-67
2023/10/22 12:09:05;;;;;;;3.67;1.20;;;;;;;;;;4099955;29;20435;-66
2023/10/22 12:11:06;;;;;;;1.67;1.10;;;;;;;;;;4099755;29;20035;-66
2023/10/22 12:13:10;;;;;;;1.38;1.35;;;;;;;;;;4099483;29;20043;-66
2023/10/22 12:15:12;;;;;;;1.45;1.23;;;;;;;;;;4099455;29;20039;-66
2023/10/22 12:17:15;;;;;;;1.20;1.10;;;;;;;;;;4092788;29;20043;-66